createdAt,value
2018-02-14T00:01:54.138Z,99.90
2018-02-14T00:03:57.491Z,99.90
2018-02-14T00:06:00.098Z,99.90
2018-02-14T00:08:02.762Z,99.90
2018-02-14T00:10:05.454Z,99.90
2018-02-14T00:12:08.063Z,99.90
2018-02-14T00:14:10.776Z,99.90
2018-02-14T00:16:13.443Z,99.90
2018-02-14T00:18:16.823Z,99.90
2018-02-14T00:20:19.478Z,99.90
2018-02-14T00:22:22.135Z,99.90
2018-02-14T00:24:25.062Z,99.90
2018-02-14T00:26:27.672Z,99.90
2018-02-14T00:28:30.346Z,99.90
2018-02-14T00:30:33.716Z,99.90
2018-02-14T00:32:36.328Z,99.90
2018-02-14T00:34:39.055Z,99.90
2018-02-14T00:36:42.571Z,99.80
2018-02-14T00:38:45.981Z,99.90
2018-02-14T00:40:49.416Z,99.90
2018-02-14T00:42:52.088Z,99.90
2018-02-14T00:44:55.541Z,99.90
2018-02-14T00:46:58.258Z,99.90
2018-02-14T00:49:01.003Z,99.10
2018-02-14T00:51:03.800Z,99.50
2018-02-14T00:53:07.166Z,99.90
2018-02-14T00:55:09.815Z,99.90
2018-02-14T00:57:13.227Z,99.20
2018-02-14T00:59:16.591Z,99.20
2018-02-14T01:01:19.998Z,99.00
2018-02-14T01:03:22.649Z,98.70
2018-02-14T01:05:26.077Z,98.80
2018-02-14T01:07:28.718Z,98.80
2018-02-14T01:09:31.358Z,98.20
2018-02-14T01:11:34.818Z,98.80
2018-02-14T01:13:37.472Z,98.70
2018-02-14T01:15:40.879Z,99.30
2018-02-14T01:17:44.298Z,99.90
2018-02-14T01:19:47.668Z,99.90
2018-02-14T01:21:50.313Z,99.90
2018-02-14T01:23:53.688Z,99.90
2018-02-14T01:25:56.420Z,99.90
2018-02-14T01:27:59.784Z,99.90
2018-02-14T01:30:02.408Z,99.90
2018-02-14T01:32:05.062Z,99.90
2018-02-14T01:34:07.672Z,99.90
2018-02-14T01:36:10.337Z,99.90
2018-02-14T01:38:13.017Z,99.90
2018-02-14T01:40:16.429Z,99.50
2018-02-14T01:42:19.944Z,99.20
2018-02-14T01:44:23.318Z,98.70
2018-02-14T01:46:25.952Z,98.60
2018-02-14T01:48:29.366Z,98.40
2018-02-14T01:50:40.717Z,96.90
2018-02-14T01:52:43.319Z,96.90
2018-02-14T01:54:46.069Z,97.10
2018-02-14T01:56:48.669Z,96.90
2018-02-14T01:58:51.313Z,97.20
2018-02-14T02:00:53.902Z,97.60
2018-02-14T02:02:57.311Z,97.80
2018-02-14T02:04:59.953Z,97.80
2018-02-14T02:07:03.327Z,98.80
2018-02-14T02:09:05.939Z,98.80
2018-02-14T02:11:08.674Z,97.70
2018-02-14T02:13:11.283Z,98.00
2018-02-14T02:15:13.969Z,96.70
2018-02-14T02:17:16.657Z,96.90
2018-02-14T02:19:20.170Z,96.20
2018-02-14T02:21:23.547Z,96.70
2018-02-14T02:23:26.173Z,96.70
2018-02-14T02:25:29.598Z,97.90
2018-02-14T02:27:32.992Z,98.10
2018-02-14T02:29:35.649Z,98.10
2018-02-14T02:31:38.278Z,98.70
2018-02-14T02:33:40.999Z,98.30
2018-02-14T02:35:44.520Z,97.50
2018-02-14T02:37:47.900Z,98.00
2018-02-14T02:40:02.229Z,98.00
2018-02-14T02:42:04.862Z,98.70
2018-02-14T02:44:07.623Z,99.40
2018-02-14T02:46:10.240Z,99.20
2018-02-14T02:48:12.854Z,99.20
2018-02-14T02:50:15.498Z,99.20
2018-02-14T02:52:18.183Z,99.20
2018-02-14T02:54:21.613Z,99.60
2018-02-14T02:56:24.239Z,99.60
2018-02-14T02:58:26.896Z,99.80
2018-02-14T03:00:29.580Z,99.90
2018-02-14T03:02:32.994Z,99.60
2018-02-14T03:04:36.327Z,99.90
2018-02-14T03:06:39.015Z,99.90
2018-02-14T03:08:41.713Z,99.90
2018-02-14T03:10:45.114Z,99.90
2018-02-14T03:12:48.538Z,99.70
2018-02-14T03:14:51.934Z,99.60
2018-02-14T03:16:54.545Z,99.60
2018-02-14T03:18:58.057Z,99.60
2018-02-14T03:21:01.424Z,99.60
2018-02-14T03:23:04.169Z,99.50
2018-02-14T03:25:07.579Z,99.00
2018-02-14T03:27:10.933Z,99.10
2018-02-14T03:29:13.694Z,99.00
2018-02-14T03:31:16.373Z,98.80
2018-02-14T03:33:18.985Z,99.20
2018-02-14T03:35:22.380Z,98.90
2018-02-14T03:37:25.817Z,99.00
2018-02-14T03:39:29.235Z,98.70
2018-02-14T03:41:32.645Z,97.20
2018-02-14T03:43:36.017Z,96.60
2018-02-14T03:45:38.650Z,96.60
2018-02-14T03:47:42.040Z,95.10
2018-02-14T03:49:44.659Z,95.10
2018-02-14T03:51:48.023Z,94.50
2018-02-14T03:53:50.670Z,94.40
2018-02-14T03:55:54.083Z,93.70
2018-02-14T03:57:57.433Z,94.20
2018-02-14T04:00:00.088Z,94.20
2018-02-14T04:02:03.470Z,94.40
2018-02-14T04:04:06.139Z,94.40
2018-02-14T04:06:08.770Z,94.70
2018-02-14T04:08:11.395Z,94.40
2018-02-14T04:10:14.765Z,93.80
2018-02-14T04:12:17.413Z,93.90
2018-02-14T04:14:20.825Z,92.70
2018-02-14T04:16:24.240Z,92.70
2018-02-14T04:18:27.651Z,92.80
2018-02-14T04:20:31.030Z,92.90
2018-02-14T04:22:33.656Z,93.10
2018-02-14T04:24:37.044Z,93.60
2018-02-14T04:26:39.774Z,93.50
2018-02-14T04:28:43.293Z,91.40
2018-02-14T04:30:46.659Z,91.10
2018-02-14T04:32:49.300Z,91.00
2018-02-14T04:34:52.661Z,91.40
2018-02-14T04:36:55.425Z,91.30
2018-02-14T04:38:58.025Z,91.60
2018-02-14T04:41:00.701Z,91.30
2018-02-14T04:43:04.130Z,91.50
2018-02-14T04:45:06.750Z,91.50
2018-02-14T04:47:09.424Z,91.80
2018-02-14T04:49:12.091Z,92.00
2018-02-14T04:51:14.915Z,92.10
2018-02-14T04:53:18.291Z,92.20
2018-02-14T04:55:20.905Z,92.20
2018-02-14T04:57:23.626Z,92.40
2018-02-14T04:59:26.992Z,92.80
2018-02-14T05:01:29.634Z,92.80
2018-02-14T05:03:33.101Z,92.80
2018-02-14T05:05:35.740Z,92.80
2018-02-14T05:07:39.153Z,92.10
2018-02-14T05:09:42.541Z,92.60
2018-02-14T05:11:45.186Z,92.60
2018-02-14T05:13:47.854Z,92.80
2018-02-14T05:15:51.376Z,92.60
2018-02-14T05:17:54.744Z,92.80
2018-02-14T05:19:57.377Z,92.80
2018-02-14T05:22:00.801Z,93.50
2018-02-14T05:24:04.217Z,93.70
2018-02-14T05:26:07.616Z,94.00
2018-02-14T05:28:10.256Z,94.00
2018-02-14T05:30:12.920Z,94.50
2018-02-14T05:32:16.442Z,93.40
2018-02-14T05:34:19.873Z,92.10
2018-02-14T05:36:22.512Z,92.10
2018-02-14T05:38:25.148Z,92.80
2018-02-14T05:40:28.580Z,92.50
2018-02-14T05:42:31.253Z,92.50
2018-02-14T05:44:34.775Z,92.70
2018-02-14T05:46:38.233Z,92.30
2018-02-14T05:48:40.906Z,92.30
2018-02-14T05:50:43.612Z,92.60
2018-02-14T05:52:46.205Z,91.70
2018-02-14T05:54:48.842Z,92.10
2018-02-14T05:56:51.575Z,91.70
2018-02-14T05:58:54.947Z,92.10
2018-02-14T06:00:57.573Z,92.10
2018-02-14T06:03:00.201Z,92.10
2018-02-14T06:05:02.801Z,92.60
2018-02-14T06:07:05.462Z,92.10
2018-02-14T06:09:08.892Z,91.90
2018-02-14T06:11:12.301Z,91.70
2018-02-14T06:13:15.711Z,92.30
2018-02-14T06:15:19.086Z,93.40
2018-02-14T06:17:21.740Z,93.40
2018-02-14T06:19:24.375Z,93.80
2018-02-14T06:21:27.838Z,91.50
2018-02-14T06:23:31.252Z,92.80
2018-02-14T06:25:34.707Z,92.20
2018-02-14T06:27:37.359Z,92.10
2018-02-14T06:29:40.746Z,92.90
2018-02-14T06:31:43.381Z,92.90
2018-02-14T06:33:46.748Z,92.50
2018-02-14T06:35:49.422Z,92.50
2018-02-14T06:37:52.056Z,93.30
2018-02-14T06:39:54.777Z,91.90
2018-02-14T06:41:58.211Z,91.70
2018-02-14T06:44:00.835Z,91.70
2018-02-14T06:46:03.556Z,92.50
2018-02-14T06:48:06.192Z,92.30
2018-02-14T06:50:09.697Z,93.80
2018-02-14T06:52:13.138Z,93.00
2018-02-14T06:54:15.861Z,92.90
2018-02-14T06:56:18.503Z,92.70
2018-02-14T06:58:21.087Z,93.50
2018-02-14T07:00:23.747Z,92.60
2018-02-14T07:02:26.401Z,93.10
2018-02-14T07:04:29.776Z,93.00
2018-02-14T07:06:32.507Z,93.00
2018-02-14T07:08:35.141Z,92.90
2018-02-14T07:10:37.807Z,92.60
2018-02-14T07:12:41.174Z,92.60
2018-02-14T07:14:43.797Z,92.60
2018-02-14T07:16:46.518Z,92.60
2018-02-14T07:18:50.031Z,91.40
2018-02-14T07:20:53.397Z,90.60
2018-02-14T07:22:55.997Z,90.60
2018-02-14T07:24:58.662Z,90.40
2018-02-14T07:27:01.342Z,90.60
2018-02-14T07:29:04.838Z,90.60
2018-02-14T07:31:08.303Z,90.50
2018-02-14T07:33:10.919Z,90.50
2018-02-14T07:35:13.597Z,91.30
2018-02-14T07:37:16.251Z,91.20
2018-02-14T07:39:19.663Z,90.90
2018-02-14T07:41:23.138Z,90.70
2018-02-14T07:43:25.761Z,90.70
2018-02-14T07:45:28.523Z,89.20
2018-02-14T07:47:31.279Z,88.30
2018-02-14T07:49:34.792Z,85.10
2018-02-14T07:51:38.272Z,85.50
2018-02-14T07:53:40.921Z,85.30
2018-02-14T07:55:43.511Z,84.30
2018-02-14T07:57:46.161Z,83.70
2018-02-14T07:59:48.797Z,85.80
2018-02-14T08:01:52.273Z,83.20
2018-02-14T08:03:54.894Z,83.10
2018-02-14T08:05:57.509Z,86.40
2018-02-14T08:08:00.927Z,87.00
2018-02-14T08:10:03.638Z,87.00
2018-02-14T08:12:06.293Z,85.00
2018-02-14T08:14:08.978Z,85.90
2018-02-14T08:16:11.612Z,84.60
2018-02-14T08:18:14.247Z,82.70
2018-02-14T08:20:16.910Z,82.40
2018-02-14T08:22:19.628Z,84.80
2018-02-14T08:24:22.294Z,84.00
2018-02-14T08:26:25.719Z,83.50
2018-02-14T08:28:28.327Z,83.50
2018-02-14T08:30:30.989Z,83.70
2018-02-14T08:32:34.424Z,83.20
2018-02-14T08:34:37.833Z,85.70
2018-02-14T08:36:41.224Z,82.80
2018-02-14T08:38:43.838Z,82.60
2018-02-14T08:40:47.313Z,83.10
2018-02-14T08:42:50.697Z,83.00
2018-02-14T08:44:53.328Z,83.80
2018-02-14T08:46:56.071Z,83.10
2018-02-14T08:48:59.447Z,82.90
2018-02-14T08:51:02.104Z,82.70
2018-02-14T08:53:04.772Z,81.40
2018-02-14T08:55:08.224Z,81.40
2018-02-14T08:57:10.882Z,81.40
2018-02-14T08:59:14.283Z,81.40
2018-02-14T09:01:16.929Z,81.40
2018-02-14T09:03:19.529Z,84.00
2018-02-14T09:05:22.172Z,82.40
2018-02-14T09:07:25.588Z,81.10
2018-02-14T09:09:28.947Z,81.70
2018-02-14T09:11:31.608Z,81.70
2018-02-14T09:15:38.459Z,78.30
2018-02-14T09:17:41.130Z,78.30
2018-02-14T09:19:44.528Z,79.10
2018-02-14T09:21:47.170Z,79.10
2018-02-14T09:23:49.862Z,76.70
2018-02-14T09:25:53.280Z,75.30
2018-02-14T09:27:56.009Z,75.20
2018-02-14T09:29:58.675Z,74.50
2018-02-14T09:32:01.450Z,74.70
2018-02-14T09:34:04.938Z,74.00
2018-02-14T09:36:07.552Z,73.90
2018-02-14T09:38:10.989Z,72.50
2018-02-14T09:40:13.630Z,72.40
2018-02-14T09:42:16.234Z,69.30
2018-02-14T09:44:20.364Z,70.60
2018-02-14T09:46:22.983Z,69.90
2018-02-14T09:48:25.618Z,68.90
2018-02-14T09:50:28.224Z,69.30
2018-02-14T09:52:30.844Z,70.50
2018-02-14T09:54:33.491Z,70.00
2018-02-14T09:56:36.897Z,65.90
2018-02-14T09:58:40.283Z,65.20
2018-02-14T10:00:42.954Z,65.10
2018-02-14T10:02:46.349Z,66.10
2018-02-14T10:04:48.994Z,66.10
2018-02-14T10:06:51.709Z,65.80
2018-02-14T10:08:55.064Z,67.80
2018-02-14T10:10:58.000Z,67.70
2018-02-14T10:13:00.642Z,67.90
2018-02-14T10:15:03.263Z,67.60
2018-02-14T10:17:05.888Z,65.70
2018-02-14T10:19:08.521Z,64.70
2018-02-14T10:21:11.160Z,63.90
2018-02-14T10:23:13.771Z,62.90
2018-02-14T10:25:16.366Z,63.20
2018-02-14T10:27:19.094Z,64.20
2018-02-14T10:29:22.459Z,62.80
2018-02-14T10:31:25.108Z,62.40
2018-02-14T10:33:28.550Z,60.70
2018-02-14T10:35:31.330Z,60.80
2018-02-14T10:37:34.760Z,58.10
2018-02-14T10:39:37.413Z,58.50
2018-02-14T10:41:40.080Z,56.20
2018-02-14T10:43:42.701Z,58.10
2018-02-14T10:45:45.342Z,57.10
2018-02-14T10:47:47.953Z,56.90
2018-02-14T10:49:50.620Z,56.60
2018-02-14T10:51:54.011Z,56.60
2018-02-14T10:53:56.630Z,56.70
2018-02-14T10:56:00.076Z,56.20
2018-02-14T10:58:02.740Z,56.10
2018-02-14T11:00:06.121Z,52.80
2018-02-14T11:02:10.574Z,52.80
2018-02-14T11:04:19.490Z,49.00
2018-02-14T11:06:36.800Z,49.00
2018-02-14T11:08:39.563Z,49.50
2018-02-14T11:10:42.978Z,45.50
2018-02-14T11:12:46.431Z,47.30
2018-02-14T11:14:49.041Z,47.30
2018-02-14T11:16:51.625Z,44.60
2018-02-14T11:18:54.291Z,44.10
2018-02-14T11:20:56.974Z,45.00
2018-02-14T11:23:00.360Z,41.90
2018-02-14T11:25:02.997Z,41.90
2018-02-14T11:27:05.605Z,44.10
2018-02-14T11:29:08.240Z,43.20
2018-02-14T11:31:10.846Z,42.90
2018-02-14T11:33:13.470Z,42.10
2018-02-14T11:35:16.845Z,41.40
2018-02-14T11:37:19.456Z,41.40
2018-02-14T11:39:22.129Z,41.50
2018-02-14T11:41:24.824Z,42.40
2018-02-14T11:43:28.200Z,41.40
2018-02-14T11:45:30.845Z,41.20
2018-02-14T11:47:34.245Z,40.80
2018-02-14T11:49:36.894Z,40.80
2018-02-14T11:51:40.277Z,40.90
2018-02-14T11:53:42.959Z,40.80
2018-02-14T11:55:46.390Z,42.40
2018-02-14T11:57:49.009Z,42.40
2018-02-14T11:59:52.399Z,38.50
2018-02-14T12:01:55.061Z,38.40
2018-02-14T12:03:57.720Z,38.60
2018-02-14T12:06:01.132Z,37.40
2018-02-14T12:08:04.555Z,35.70
2018-02-14T12:10:07.941Z,39.30
2018-02-14T12:12:10.713Z,39.20
2018-02-14T12:14:13.292Z,38.00
2018-02-14T12:16:15.932Z,37.30
2018-02-14T12:18:18.577Z,37.00
2018-02-14T12:20:21.203Z,36.40
2018-02-14T12:22:23.819Z,37.60
2018-02-14T12:24:26.559Z,36.10
2018-02-14T12:26:29.335Z,35.50
2018-02-14T12:28:32.824Z,36.10
2018-02-14T12:30:35.446Z,36.00
2018-02-14T12:32:38.879Z,35.60
2018-02-14T12:34:41.525Z,34.90
2018-02-14T12:36:44.161Z,34.90
2018-02-14T12:38:47.566Z,35.80
2018-02-14T12:40:50.280Z,35.90
2018-02-14T12:42:53.683Z,33.90
2018-02-14T12:44:57.120Z,35.30
2018-02-14T12:46:59.811Z,35.40
2018-02-14T12:49:02.458Z,35.20
2018-02-14T12:51:05.915Z,34.50
2018-02-14T12:53:09.342Z,35.30
2018-02-14T12:55:11.956Z,35.30
2018-02-14T12:57:14.616Z,33.60
2018-02-14T12:59:18.040Z,34.00
2018-02-14T13:01:21.577Z,32.90
2018-02-14T13:03:24.245Z,32.90
2018-02-14T13:05:27.670Z,32.80
2018-02-14T13:07:31.037Z,34.20
2018-02-14T13:09:33.780Z,34.20
2018-02-14T13:11:37.287Z,34.60
2018-02-14T13:13:40.706Z,32.00
2018-02-14T13:15:43.498Z,32.00
2018-02-14T13:17:46.876Z,32.80
2018-02-14T13:19:49.592Z,32.80
2018-02-14T13:21:52.210Z,33.60
2018-02-14T13:23:55.612Z,33.20
2018-02-14T13:25:59.005Z,32.80
2018-02-14T13:28:01.636Z,32.50
2018-02-14T13:30:05.045Z,35.20
2018-02-14T13:32:08.455Z,35.10
2018-02-14T13:34:11.836Z,34.80
2018-02-14T13:36:14.494Z,34.70
2018-02-14T13:38:17.272Z,34.30
2018-02-14T13:40:20.018Z,35.50
2018-02-14T13:42:22.656Z,35.50
2018-02-14T13:44:26.077Z,34.70
2018-02-14T13:46:29.596Z,33.90
2018-02-14T13:48:32.977Z,32.80
2018-02-14T13:50:35.639Z,32.70
2018-02-14T13:52:38.462Z,33.10
2018-02-14T13:54:41.165Z,32.60
2018-02-14T13:56:43.806Z,33.50
2018-02-14T13:58:47.172Z,33.90
2018-02-14T14:00:49.917Z,34.50
2018-02-14T14:02:53.293Z,33.90
2018-02-14T14:04:56.027Z,33.90
2018-02-14T14:06:59.458Z,31.40
2018-02-14T14:09:02.133Z,31.50
2018-02-14T14:11:05.653Z,33.00
2018-02-14T14:13:09.113Z,32.10
2018-02-14T14:15:11.972Z,32.10
2018-02-14T14:17:15.377Z,33.00
2018-02-14T14:19:18.017Z,33.00
2018-02-14T14:21:20.656Z,33.50
2018-02-14T14:23:23.276Z,34.70
2018-02-14T14:25:26.739Z,34.00
2018-02-14T14:27:29.417Z,33.90
2018-02-14T14:29:32.057Z,33.40
2018-02-14T14:31:34.672Z,33.50
2018-02-14T14:33:37.380Z,33.30
2018-02-14T14:35:40.773Z,33.80
2018-02-14T14:37:43.384Z,33.70
2018-02-14T14:39:46.907Z,33.30
2018-02-14T14:41:50.328Z,32.30
2018-02-14T14:43:53.836Z,32.50
2018-02-14T14:45:57.202Z,32.10
2018-02-14T14:47:59.807Z,32.10
2018-02-14T14:50:02.549Z,32.20
2018-02-14T14:52:05.919Z,32.60
2018-02-14T14:54:08.602Z,32.40
2018-02-14T14:56:11.243Z,31.50
2018-02-14T14:58:14.624Z,32.70
2018-02-14T15:00:17.324Z,32.70
2018-02-14T15:02:20.685Z,33.60
2018-02-14T15:04:23.304Z,33.60
2018-02-14T15:06:26.024Z,33.70
2018-02-14T15:08:28.644Z,34.50
2018-02-14T15:10:31.459Z,34.60
2018-02-14T15:12:34.849Z,37.80
2018-02-14T15:14:37.462Z,37.60
2018-02-14T15:16:40.129Z,36.30
2018-02-14T15:18:42.867Z,35.70
2018-02-14T15:20:46.239Z,36.90
2018-02-14T15:22:48.901Z,36.90
2018-02-14T15:24:51.510Z,35.60
2018-02-14T15:26:54.173Z,36.10
2018-02-14T15:28:57.623Z,36.90
2018-02-14T15:31:00.224Z,36.90
2018-02-14T15:33:02.859Z,36.80
2018-02-14T15:35:05.499Z,37.20
2018-02-14T15:37:08.148Z,37.40
2018-02-14T15:39:10.807Z,37.90
2018-02-14T15:41:13.410Z,38.70
2018-02-14T15:43:16.029Z,40.90
2018-02-14T15:45:18.669Z,40.10
2018-02-14T15:47:21.328Z,39.40
2018-02-14T15:49:23.961Z,38.90
2018-02-14T15:51:26.609Z,39.90
2018-02-14T15:53:29.992Z,40.50
2018-02-14T15:55:32.770Z,40.40
2018-02-14T15:57:35.367Z,41.20
2018-02-14T15:59:38.154Z,40.40
2018-02-14T16:01:41.570Z,41.00
2018-02-14T16:03:45.006Z,40.80
2018-02-14T16:05:47.622Z,40.80
2018-02-14T16:07:50.243Z,40.30
2018-02-14T16:09:52.928Z,41.40
2018-02-14T16:11:55.672Z,42.70
2018-02-14T16:13:59.048Z,43.80
2018-02-14T16:16:01.648Z,43.80
2018-02-14T16:18:04.395Z,42.70
2018-02-14T16:20:07.182Z,44.90
2018-02-14T16:22:10.615Z,43.40
2018-02-14T16:24:13.229Z,43.30
2018-02-14T16:26:15.855Z,43.90
2018-02-14T16:28:18.581Z,44.50
2018-02-14T16:30:22.025Z,44.50
2018-02-14T16:32:24.699Z,44.50
2018-02-14T16:34:28.154Z,47.30
2018-02-14T16:36:30.807Z,47.30
2018-02-14T16:38:34.202Z,47.00
2018-02-14T16:40:36.967Z,47.20
2018-02-14T16:42:39.620Z,49.40
2018-02-14T16:44:43.054Z,46.00
2018-02-14T16:46:45.798Z,45.90
2018-02-14T16:48:48.525Z,48.80
2018-02-14T16:50:51.961Z,48.30
2018-02-14T16:52:54.649Z,49.00
2018-02-14T16:54:58.109Z,50.50
2018-02-14T16:57:00.809Z,50.50
2018-02-14T16:59:03.561Z,51.60
2018-02-14T17:01:07.041Z,53.00
2018-02-14T17:03:09.688Z,52.90
2018-02-14T17:05:12.407Z,52.80
2018-02-14T17:07:15.042Z,50.50
2018-02-14T17:09:17.702Z,49.60
2018-02-14T17:11:20.455Z,50.50
2018-02-14T17:13:23.835Z,47.40
2018-02-14T17:15:26.436Z,47.40
2018-02-14T17:17:29.146Z,48.40
2018-02-14T17:19:31.765Z,47.60
2018-02-14T17:21:35.130Z,48.30
2018-02-14T17:23:37.816Z,48.30
2018-02-14T17:25:40.468Z,47.80
2018-02-14T17:27:44.191Z,46.80
2018-02-14T17:29:47.565Z,48.60
2018-02-14T17:31:51.736Z,45.90
2018-02-14T17:33:55.180Z,47.40
2018-02-14T17:35:57.830Z,47.30
2018-02-14T17:38:01.616Z,46.30
2018-02-14T17:40:04.322Z,46.30
2018-02-14T17:42:07.076Z,44.20
2018-02-14T17:44:09.872Z,44.40
2018-02-14T17:46:13.325Z,45.20
2018-02-14T17:48:15.991Z,45.20
2018-02-14T17:50:18.669Z,44.50
2018-02-14T17:52:22.194Z,43.90
2018-02-14T17:54:25.605Z,44.30
2018-02-14T17:56:29.020Z,44.40
2018-02-14T17:58:32.477Z,45.30
2018-02-14T18:00:35.165Z,45.20
2018-02-14T18:02:37.830Z,44.30
2018-02-14T18:04:41.216Z,44.80
2018-02-14T18:06:44.691Z,42.80
2018-02-14T18:08:47.456Z,42.80
2018-02-14T18:10:50.970Z,43.50
2018-02-14T18:12:54.366Z,41.50
2018-02-14T18:14:57.022Z,41.50
2018-02-14T18:16:59.645Z,42.90
2018-02-14T18:19:02.502Z,43.50
2018-02-14T18:21:05.155Z,44.80
2018-02-14T18:23:07.772Z,44.00
2018-02-14T18:25:11.359Z,44.90
2018-02-14T18:27:13.950Z,44.80
2018-02-14T18:29:16.590Z,44.10
2018-02-14T18:31:20.052Z,44.60
2018-02-14T18:33:22.685Z,44.60
2018-02-14T18:35:26.125Z,45.20
2018-02-14T18:37:28.842Z,44.70
2018-02-14T18:39:31.617Z,44.30
2018-02-14T18:41:35.051Z,43.50
2018-02-14T18:43:37.690Z,43.50
2018-02-14T18:45:40.428Z,44.80
2018-02-14T18:47:43.103Z,44.20
2018-02-14T18:49:46.644Z,44.40
2018-02-14T18:51:49.264Z,44.30
2018-02-14T18:53:51.957Z,44.00
2018-02-14T18:55:54.716Z,45.20
2018-02-14T18:57:58.173Z,45.00
2018-02-14T19:00:00.871Z,44.80
2018-02-14T19:02:03.636Z,44.20
2018-02-14T19:04:07.042Z,44.50
2018-02-14T19:06:10.566Z,44.50
2018-02-14T19:08:13.940Z,44.30
2018-02-14T19:10:16.581Z,44.30
2018-02-14T19:12:19.252Z,44.90
2018-02-14T19:14:21.884Z,44.20
2018-02-14T19:16:24.597Z,44.70
2018-02-14T19:18:27.266Z,44.70
2018-02-14T19:20:30.685Z,45.10
2018-02-14T19:22:34.167Z,45.10
2018-02-14T19:24:36.807Z,45.20
2018-02-14T19:26:39.489Z,46.60
2018-02-14T19:28:42.910Z,45.70
2018-02-14T19:30:45.603Z,45.70
2018-02-14T19:32:48.254Z,45.50
2018-02-14T19:34:50.899Z,45.50
2018-02-14T19:36:54.345Z,46.10
2018-02-14T19:38:56.977Z,46.20
2018-02-14T19:40:59.613Z,47.40
2018-02-14T19:43:15.422Z,48.30
2018-02-14T19:45:18.098Z,48.70
2018-02-14T19:47:20.730Z,47.70
2018-02-14T19:49:24.155Z,47.80
2018-02-14T19:51:27.617Z,48.50
2018-02-14T19:53:30.262Z,48.40
2018-02-14T19:55:33.072Z,48.80
2018-02-14T19:57:36.497Z,47.70
2018-02-14T19:59:39.183Z,47.60
2018-02-14T20:01:42.677Z,49.40
2018-02-14T20:03:45.402Z,49.40
2018-02-14T20:05:48.187Z,49.40
2018-02-14T20:07:50.812Z,50.40
2018-02-14T20:09:53.513Z,52.50
2018-02-14T20:11:56.184Z,52.10
2018-02-14T20:13:58.857Z,53.00
2018-02-14T20:16:02.251Z,52.80
2018-02-14T20:18:05.785Z,53.20
2018-02-14T20:20:09.248Z,51.70
2018-02-14T20:22:11.902Z,51.60
2018-02-14T20:24:14.697Z,51.70
2018-02-14T20:26:18.221Z,53.00
2018-02-14T20:28:20.867Z,53.00
2018-02-14T20:30:23.602Z,53.00
2018-02-14T20:32:27.019Z,53.80
2018-02-14T20:34:30.462Z,54.40
2018-02-14T20:36:33.142Z,54.30
2018-02-14T20:38:35.842Z,54.90
2018-02-14T20:40:38.633Z,54.90
2018-02-14T20:42:42.153Z,54.70
2018-02-14T20:44:45.639Z,54.80
2018-02-14T20:46:48.293Z,54.70
2018-02-14T20:48:50.933Z,54.20
2018-02-14T20:50:53.756Z,55.00
2018-02-14T20:52:57.170Z,55.10
2018-02-14T20:55:00.583Z,54.50
2018-02-14T20:57:04.105Z,55.30
2018-02-14T20:59:07.514Z,55.30
2018-02-14T21:01:11.084Z,54.60
2018-02-14T21:03:13.729Z,54.50
2018-02-14T21:05:17.173Z,55.30
2018-02-14T21:07:19.859Z,55.20
2018-02-14T21:09:22.484Z,54.10
2018-02-14T21:11:25.249Z,54.00
2018-02-14T21:13:27.903Z,53.30
2018-02-14T21:15:30.616Z,54.20
2018-02-14T21:17:34.009Z,53.00
2018-02-14T21:19:36.746Z,53.10
2018-02-14T21:21:40.258Z,52.70
2018-02-14T21:23:43.713Z,52.50
2018-02-14T21:25:46.347Z,52.40
2018-02-14T21:27:49.011Z,52.00
2018-02-14T21:29:51.669Z,51.00
2018-02-14T21:31:54.339Z,51.30
2018-02-14T21:33:57.059Z,51.90
2018-02-14T21:36:00.457Z,51.10
2018-02-14T21:38:03.899Z,51.10
2018-02-14T21:40:06.581Z,51.10
2018-02-14T21:42:10.010Z,51.90
2018-02-14T21:44:12.648Z,51.90
2018-02-14T21:46:15.339Z,50.90
2018-02-14T21:48:18.075Z,51.40
2018-02-14T21:50:20.697Z,50.90
2018-02-14T21:52:23.363Z,51.00
2018-02-14T21:54:26.017Z,50.80
2018-02-14T21:56:28.779Z,50.40
2018-02-14T21:58:32.194Z,48.90
2018-02-14T22:00:35.609Z,48.50
2018-02-14T22:02:38.262Z,48.50
2018-02-14T22:04:40.913Z,48.00
2018-02-14T22:06:43.649Z,47.40
2018-02-14T22:08:47.058Z,47.40
2018-02-14T22:10:49.777Z,47.40
2018-02-14T22:12:52.513Z,48.70
2018-02-14T22:14:55.894Z,46.20
2018-02-14T22:16:58.573Z,46.20
2018-02-14T22:19:01.318Z,46.10
2018-02-14T22:21:03.963Z,45.10
2018-02-14T22:23:06.724Z,45.60
2018-02-14T22:25:10.089Z,44.50
2018-02-14T22:27:12.830Z,44.50
2018-02-14T22:29:16.199Z,44.60
2018-02-14T22:31:18.834Z,44.60
2018-02-14T22:33:22.359Z,44.70
2018-02-14T22:35:25.060Z,44.60
2018-02-14T22:37:27.757Z,44.60
2018-02-14T22:39:31.263Z,44.50
2018-02-14T22:41:34.679Z,44.60
2018-02-14T22:43:38.106Z,44.50
2018-02-14T22:45:40.904Z,44.40
2018-02-14T22:47:43.513Z,43.60
2018-02-14T22:49:46.128Z,43.60
2018-02-14T22:51:48.818Z,44.10
2018-02-14T22:53:51.443Z,43.30
2018-02-14T22:55:54.058Z,43.80
2018-02-14T22:57:56.764Z,43.70
2018-02-14T22:59:59.429Z,43.20
2018-02-14T23:02:02.934Z,43.80
2018-02-14T23:04:05.685Z,44.50
2018-02-14T23:06:08.383Z,43.70
2018-02-14T23:08:11.900Z,43.10
2018-02-14T23:10:15.417Z,42.50
2018-02-14T23:12:18.842Z,43.10
2018-02-14T23:14:21.443Z,43.10
2018-02-14T23:16:24.101Z,43.40
2018-02-14T23:18:26.722Z,43.20
2018-02-14T23:20:30.160Z,42.60
2018-02-14T23:22:32.819Z,42.60
2018-02-14T23:24:36.205Z,42.30
2018-02-14T23:26:39.654Z,42.40
2018-02-14T23:28:43.188Z,42.40
2018-02-14T23:30:45.805Z,42.40
2018-02-14T23:32:48.471Z,42.30
2018-02-14T23:34:51.884Z,42.70
2018-02-14T23:36:55.295Z,42.30
2018-02-14T23:38:58.720Z,42.30
2018-02-14T23:41:01.353Z,42.20
2018-02-14T23:43:03.961Z,41.40
2018-02-14T23:45:06.623Z,42.10
2018-02-14T23:47:09.251Z,42.40
2018-02-14T23:49:12.641Z,42.80
2018-02-14T23:51:15.239Z,42.80
2018-02-14T23:53:17.918Z,42.60
2018-02-14T23:55:20.546Z,42.10
2018-02-14T23:57:23.132Z,41.90
2018-02-14T23:59:25.772Z,42.90
